<?xml version='1.0' encoding='utf-8'?>
<gpx xmlns="http://www.topografix.com/GPX/1/1" xmlns:xsi="http://www.w3.org/2001/XMLSchema-instance" version="v1.1.5" creator="iTravel Tech Inc. - http://www.itravel-tech.com" xsi:schemaLocation="http://www.topografix.com/GPX/1/1 http://www.topografix.com/GPX/1/1/gpx.xsd http://www.topografix.com/GPX/gpx_overlay/0/3 http://www.topografix.com/GPX/gpx_overlay/0/3/gpx_overlay.xsd http://www.topografix.com/GPX/gpx_modified/0/1 http://www.topografix.com/GPX/gpx_modified/0/1/gpx_modified.xsd">
<trk>
<name>Holux2012/05/03_13:34</name>
<trkseg>
<trkpt lat="43.146038" lon="19.298264">
<ele>660.7</ele>
<time>2012-05-03T10:34:31Z</time>
<desc>lat.=43.146038, lon.=19.298264, Alt.=113.237366m. Speed=0.468000m/h.</desc>
<speed>0.130000</speed>
</trkpt>
<trkpt lat="43.149395" lon="19.299833">
<ele>751.2</ele>
<time>2012-05-03T10:34:36Z</time>
<desc>lat.=43.149395, lon.=19.299833, Alt.=827.492676m. Speed=0.432000m/h.</desc>
<speed>0.120000</speed>
</trkpt>
<trkpt lat="43.148903" lon="19.299736">
<ele>747.5</ele>
<time>2012-05-03T10:36:36Z</time>
<desc>lat.=43.148903, lon.=19.299736, Alt.=801.742676m. Speed=3.312000m/h.</desc>
<speed>0.920000</speed>
</trkpt>
<trkpt lat="43.148926" lon="19.299471">
<ele>746.0</ele>
<time>2012-05-03T10:37:01Z</time>
<desc>lat.=43.148926, lon.=19.299471, Alt.=773.836426m. Speed=2.016000m/h.</desc>
<speed>0.560000</speed>
</trkpt>
<trkpt lat="43.149078" lon="19.299713">
<ele>748.0</ele>
<time>2012-05-03T10:40:21Z</time>
<desc>lat.=43.149078, lon.=19.299713, Alt.=766.211426m. Speed=1.116000m/h.</desc>
<speed>0.310000</speed>
</trkpt>
<trkpt lat="43.148960" lon="19.299805">
<ele>748.1</ele>
<time>2012-05-03T10:40:41Z</time>
<desc>lat.=43.148960, lon.=19.299805, Alt.=765.820801m. Speed=1.908000m/h.</desc>
<speed>0.530000</speed>
</trkpt>
<trkpt lat="43.148914" lon="19.299526">
<ele>746.2</ele>
<time>2012-05-03T10:42:16Z</time>
<desc>lat.=43.148914, lon.=19.299526, Alt.=761.070801m. Speed=1.044000m/h.</desc>
<speed>0.290000</speed>
</trkpt>
<trkpt lat="43.148865" lon="19.299654">
<ele>746.8</ele>
<time>2012-05-03T10:42:31Z</time>
<desc>lat.=43.148865, lon.=19.299654, Alt.=760.523926m. Speed=2.160000m/h.</desc>
<speed>0.600000</speed>
</trkpt>
<trkpt lat="43.148956" lon="19.299774">
<ele>747.9</ele>
<time>2012-05-03T10:43:01Z</time>
<desc>lat.=43.148956, lon.=19.299774, Alt.=759.258301m. Speed=2.772000m/h.</desc>
<speed>0.770000</speed>
</trkpt>
<trkpt lat="43.148964" lon="19.299549">
<ele>746.7</ele>
<time>2012-05-03T10:43:26Z</time>
<desc>lat.=43.148964, lon.=19.299549, Alt.=758.836426m. Speed=1.512000m/h.</desc>
<speed>0.420000</speed>
</trkpt>
<trkpt lat="43.149052" lon="19.299730">
<ele>747.9</ele>
<time>2012-05-03T10:44:31Z</time>
<desc>lat.=43.149052, lon.=19.299730, Alt.=755.852051m. Speed=0.432000m/h.</desc>
<speed>0.120000</speed>
</trkpt>
<trkpt lat="43.149097" lon="19.299501">
<ele>747.0</ele>
<time>2012-05-03T10:47:11Z</time>
<desc>lat.=43.149097, lon.=19.299501, Alt.=755.055176m. Speed=1.332000m/h.</desc>
<speed>0.370000</speed>
</trkpt>
<trkpt lat="43.148972" lon="19.299732">
<ele>747.6</ele>
<time>2012-05-03T10:48:56Z</time>
<desc>lat.=43.148972, lon.=19.299732, Alt.=752.211426m. Speed=0.540000m/h.</desc>
<speed>0.150000</speed>
</trkpt>
<trkpt lat="43.149101" lon="19.299538">
<ele>747.2</ele>
<time>2012-05-03T10:49:21Z</time>
<desc>lat.=43.149101, lon.=19.299538, Alt.=753.367676m. Speed=1.512000m/h.</desc>
<speed>0.420000</speed>
</trkpt>
<trkpt lat="43.148991" lon="19.299505">
<ele>746.6</ele>
<time>2012-05-03T10:49:31Z</time>
<desc>lat.=43.148991, lon.=19.299505, Alt.=753.961426m. Speed=0.324000m/h.</desc>
<speed>0.090000</speed>
</trkpt>
<trkpt lat="43.149033" lon="19.299637">
<ele>747.4</ele>
<time>2012-05-03T10:49:46Z</time>
<desc>lat.=43.149033, lon.=19.299637, Alt.=756.852051m. Speed=0.360000m/h.</desc>
<speed>0.100000</speed>
</trkpt>
<trkpt lat="43.149307" lon="19.299446">
<ele>746.9</ele>
<time>2012-05-03T10:49:56Z</time>
<desc>lat.=43.149307, lon.=19.299446, Alt.=757.242676m. Speed=16.236000m/h.</desc>
<speed>4.510000</speed>
</trkpt>
<trkpt lat="43.149982" lon="19.298521">
<ele>747.3</ele>
<time>2012-05-03T10:50:16Z</time>
<desc>lat.=43.149982, lon.=19.298521, Alt.=752.961426m. Speed=11.124000m/h.</desc>
<speed>3.090000</speed>
</trkpt>
<trkpt lat="43.150818" lon="19.296007">
<ele>745.6</ele>
<time>2012-05-03T10:51:21Z</time>
<desc>lat.=43.150818, lon.=19.296007, Alt.=769.680176m. Speed=11.844000m/h.</desc>
<speed>3.290000</speed>
</trkpt>
<trkpt lat="43.150528" lon="19.295410">
<ele>679.8</ele>
<time>2012-05-03T10:51:36Z</time>
<desc>lat.=43.150528, lon.=19.295410, Alt.=771.227051m. Speed=24.156000m/h.</desc>
<speed>6.710000</speed>
</trkpt>
<trkpt lat="43.149437" lon="19.294073">
<ele>715.5</ele>
<time>2012-05-03T10:51:56Z</time>
<desc>lat.=43.149437, lon.=19.294073, Alt.=772.477051m. Speed=30.743999m/h.</desc>
<speed>8.540000</speed>
</trkpt>
<trkpt lat="43.148582" lon="19.292086">
<ele>769.8</ele>
<time>2012-05-03T10:52:21Z</time>
<desc>lat.=43.148582, lon.=19.292086, Alt.=774.008301m. Speed=11.556000m/h.</desc>
<speed>3.210000</speed>
</trkpt>
<trkpt lat="43.146969" lon="19.291948">
<ele>765.4</ele>
<time>2012-05-03T10:52:51Z</time>
<desc>lat.=43.146969, lon.=19.291948, Alt.=772.914551m. Speed=31.788000m/h.</desc>
<speed>8.830000</speed>
</trkpt>
<trkpt lat="43.146206" lon="19.292093">
<ele>769.1</ele>
<time>2012-05-03T10:53:01Z</time>
<desc>lat.=43.146206, lon.=19.292093, Alt.=771.508301m. Speed=32.507999m/h.</desc>
<speed>9.030000</speed>
</trkpt>
<trkpt lat="43.144627" lon="19.293316">
<ele>752.4</ele>
<time>2012-05-03T10:53:21Z</time>
<desc>lat.=43.144627, lon.=19.293316, Alt.=770.539551m. Speed=36.324001m/h.</desc>
<speed>10.090000</speed>
</trkpt>
<trkpt lat="43.143547" lon="19.294735">
<ele>747.4</ele>
<time>2012-05-03T10:53:36Z</time>
<desc>lat.=43.143547, lon.=19.294735, Alt.=767.977051m. Speed=46.512001m/h.</desc>
<speed>12.920000</speed>
</trkpt>
<trkpt lat="43.142475" lon="19.295559">
<ele>753.7</ele>
<time>2012-05-03T10:53:46Z</time>
<desc>lat.=43.142475, lon.=19.295559, Alt.=764.789551m. Speed=43.487999m/h.</desc>
<speed>12.080000</speed>
</trkpt>
<trkpt lat="43.141537" lon="19.297203">
<ele>730.6</ele>
<time>2012-05-03T10:54:01Z</time>
<desc>lat.=43.141537, lon.=19.297203, Alt.=760.320801m. Speed=36.792000m/h.</desc>
<speed>10.220000</speed>
</trkpt>
<trkpt lat="43.140526" lon="19.298536">
<ele>715.3</ele>
<time>2012-05-03T10:54:16Z</time>
<desc>lat.=43.140526, lon.=19.298536, Alt.=757.867676m. Speed=36.863998m/h.</desc>
<speed>10.240000</speed>
</trkpt>
<trkpt lat="43.140011" lon="19.298977">
<ele>709.0</ele>
<time>2012-05-03T10:54:21Z</time>
<desc>lat.=43.140011, lon.=19.298977, Alt.=751.961426m. Speed=43.812000m/h.</desc>
<speed>12.170000</speed>
</trkpt>
<trkpt lat="43.139103" lon="19.299219">
<ele>707.5</ele>
<time>2012-05-03T10:54:31Z</time>
<desc>lat.=43.139103, lon.=19.299219, Alt.=750.539551m. Speed=32.976002m/h.</desc>
<speed>9.160000</speed>
</trkpt>
<trkpt lat="43.138306" lon="19.299698">
<ele>741.4</ele>
<time>2012-05-03T10:54:46Z</time>
<desc>lat.=43.138306, lon.=19.299698, Alt.=746.289551m. Speed=16.271999m/h.</desc>
<speed>4.520000</speed>
</trkpt>
<trkpt lat="43.134289" lon="19.307655">
<ele>645.2</ele>
<time>2012-05-03T10:55:59Z</time>
<desc>lat.=43.134289, lon.=19.307655, Alt.=625.461426m. Speed=70.307999m/h.</desc>
<speed>19.530000</speed>
</trkpt>
<trkpt lat="43.133671" lon="19.308575">
<ele>653.9</ele>
<time>2012-05-03T10:56:09Z</time>
<desc>lat.=43.133671, lon.=19.308575, Alt.=584.102051m. Speed=45.792000m/h.</desc>
<speed>12.720000</speed>
</trkpt>
<trkpt lat="43.132221" lon="19.309195">
<ele>648.6</ele>
<time>2012-05-03T10:56:19Z</time>
<desc>lat.=43.132221, lon.=19.309195, Alt.=608.523926m. Speed=49.824001m/h.</desc>
<speed>13.840000</speed>
</trkpt>
<trkpt lat="43.130989" lon="19.308952">
<ele>640.5</ele>
<time>2012-05-03T10:56:29Z</time>
<desc>lat.=43.130989, lon.=19.308952, Alt.=605.648926m. Speed=54.000000m/h.</desc>
<speed>15.000000</speed>
</trkpt>
<trkpt lat="43.129585" lon="19.309053">
<ele>644.8</ele>
<time>2012-05-03T10:56:39Z</time>
<desc>lat.=43.129585, lon.=19.309053, Alt.=611.914551m. Speed=55.835999m/h.</desc>
<speed>15.510000</speed>
</trkpt>
<trkpt lat="43.129002" lon="19.309410">
<ele>642.3</ele>
<time>2012-05-03T10:56:44Z</time>
<desc>lat.=43.129002, lon.=19.309410, Alt.=618.398926m. Speed=48.672001m/h.</desc>
<speed>13.520000</speed>
</trkpt>
<trkpt lat="43.127792" lon="19.310644">
<ele>646.7</ele>
<time>2012-05-03T10:57:19Z</time>
<desc>lat.=43.127792, lon.=19.310644, Alt.=634.961426m. Speed=2.592000m/h.</desc>
<speed>0.720000</speed>
</trkpt>
<trkpt lat="43.128365" lon="19.309860">
<ele>645.9</ele>
<time>2012-05-03T10:57:44Z</time>
<desc>lat.=43.128365, lon.=19.309860, Alt.=637.664551m. Speed=3.240000m/h.</desc>
<speed>0.900000</speed>
</trkpt>
<trkpt lat="43.128468" lon="19.310078">
<ele>638.1</ele>
<time>2012-05-03T10:58:14Z</time>
<desc>lat.=43.128468, lon.=19.310078, Alt.=641.852051m. Speed=1.224000m/h.</desc>
<speed>0.340000</speed>
</trkpt>
<trkpt lat="43.128338" lon="19.310148">
<ele>639.9</ele>
<time>2012-05-03T10:59:04Z</time>
<desc>lat.=43.128338, lon.=19.310148, Alt.=645.070801m. Speed=1.548000m/h.</desc>
<speed>0.430000</speed>
</trkpt>
<trkpt lat="43.128548" lon="19.309927">
<ele>640.5</ele>
<time>2012-05-03T10:59:54Z</time>
<desc>lat.=43.128548, lon.=19.309927, Alt.=646.211426m. Speed=1.980000m/h.</desc>
<speed>0.550000</speed>
</trkpt>
<trkpt lat="43.129032" lon="19.310461">
<ele>661.9</ele>
<time>2012-05-03T11:02:49Z</time>
<desc>lat.=43.129032, lon.=19.310461, Alt.=618.664551m. Speed=1.620000m/h.</desc>
<speed>0.450000</speed>
</trkpt>
<trkpt lat="43.128544" lon="19.310019">
<ele>639.2</ele>
<time>2012-05-03T11:04:54Z</time>
<desc>lat.=43.128544, lon.=19.310019, Alt.=614.242676m. Speed=1.584000m/h.</desc>
<speed>0.440000</speed>
</trkpt>
<trkpt lat="43.128700" lon="19.310221">
<ele>641.4</ele>
<time>2012-05-03T11:05:14Z</time>
<desc>lat.=43.128700, lon.=19.310221, Alt.=615.258301m. Speed=1.620000m/h.</desc>
<speed>0.450000</speed>
</trkpt>
<trkpt lat="43.128819" lon="19.310160">
<ele>643.5</ele>
<time>2012-05-03T11:05:24Z</time>
<desc>lat.=43.128819, lon.=19.310160, Alt.=614.414551m. Speed=3.096000m/h.</desc>
<speed>0.860000</speed>
</trkpt>
<trkpt lat="43.128674" lon="19.310043">
<ele>639.2</ele>
<time>2012-05-03T11:05:39Z</time>
<desc>lat.=43.128674, lon.=19.310043, Alt.=615.320801m. Speed=1.116000m/h.</desc>
<speed>0.310000</speed>
</trkpt>
<trkpt lat="43.128860" lon="19.309923">
<ele>641.4</ele>
<time>2012-05-03T11:06:29Z</time>
<desc>lat.=43.128860, lon.=19.309923, Alt.=615.414551m. Speed=1.836000m/h.</desc>
<speed>0.510000</speed>
</trkpt>
<trkpt lat="43.128788" lon="19.310099">
<ele>641.0</ele>
<time>2012-05-03T11:06:54Z</time>
<desc>lat.=43.128788, lon.=19.310099, Alt.=615.461426m. Speed=1.260000m/h.</desc>
<speed>0.350000</speed>
</trkpt>
<trkpt lat="43.129021" lon="19.310349">
<ele>657.5</ele>
<time>2012-05-03T11:07:19Z</time>
<desc>lat.=43.129021, lon.=19.310349, Alt.=612.852051m. Speed=1.692000m/h.</desc>
<speed>0.470000</speed>
</trkpt>
<trkpt lat="43.129021" lon="19.309982">
<ele>646.1</ele>
<time>2012-05-03T11:07:59Z</time>
<desc>lat.=43.129021, lon.=19.309982, Alt.=613.070801m. Speed=0.792000m/h.</desc>
<speed>0.220000</speed>
</trkpt>
<trkpt lat="43.128532" lon="19.309971">
<ele>639.9</ele>
<time>2012-05-03T11:08:49Z</time>
<desc>lat.=43.128532, lon.=19.309971, Alt.=613.602051m. Speed=1.008000m/h.</desc>
<speed>0.280000</speed>
</trkpt>
<trkpt lat="43.128830" lon="19.310125">
<ele>643.1</ele>
<time>2012-05-03T11:10:29Z</time>
<desc>lat.=43.128830, lon.=19.310125, Alt.=613.961426m. Speed=1.764000m/h.</desc>
<speed>0.490000</speed>
</trkpt>
<trkpt lat="43.129272" lon="19.309799">
<ele>649.0</ele>
<time>2012-05-03T11:11:04Z</time>
<desc>lat.=43.129272, lon.=19.309799, Alt.=621.992676m. Speed=2.844000m/h.</desc>
<speed>0.790000</speed>
</trkpt>
<trkpt lat="43.129292" lon="19.309978">
<ele>655.8</ele>
<time>2012-05-03T11:11:59Z</time>
<desc>lat.=43.129292, lon.=19.309978, Alt.=630.867676m. Speed=0.540000m/h.</desc>
<speed>0.150000</speed>
</trkpt>
<trkpt lat="43.128971" lon="19.309786">
<ele>641.1</ele>
<time>2012-05-03T11:13:29Z</time>
<desc>lat.=43.128971, lon.=19.309786, Alt.=637.898926m. Speed=3.564000m/h.</desc>
<speed>0.990000</speed>
</trkpt>
<trkpt lat="43.130157" lon="19.309002">
<ele>638.6</ele>
<time>2012-05-03T11:14:44Z</time>
<desc>lat.=43.130157, lon.=19.309002, Alt.=639.102051m. Speed=8.748000m/h.</desc>
<speed>2.430000</speed>
</trkpt>
<trkpt lat="43.130474" lon="19.308985">
<ele>637.9</ele>
<time>2012-05-03T11:14:54Z</time>
<desc>lat.=43.130474, lon.=19.308985, Alt.=643.133301m. Speed=8.928000m/h.</desc>
<speed>2.480000</speed>
</trkpt>
<trkpt lat="43.131481" lon="19.309540">
<ele>657.6</ele>
<time>2012-05-03T11:15:34Z</time>
<desc>lat.=43.131481, lon.=19.309540, Alt.=650.367676m. Speed=5.724000m/h.</desc>
<speed>1.590000</speed>
</trkpt>
<trkpt lat="43.132084" lon="19.309177">
<ele>649.4</ele>
<time>2012-05-03T11:16:09Z</time>
<desc>lat.=43.132084, lon.=19.309177, Alt.=647.461426m. Speed=7.056000m/h.</desc>
<speed>1.960000</speed>
</trkpt>
<trkpt lat="43.133625" lon="19.308817">
<ele>645.4</ele>
<time>2012-05-03T11:17:04Z</time>
<desc>lat.=43.133625, lon.=19.308817, Alt.=643.273926m. Speed=8.028000m/h.</desc>
<speed>2.230000</speed>
</trkpt>
<trkpt lat="43.134003" lon="19.308079">
<ele>648.8</ele>
<time>2012-05-03T11:17:34Z</time>
<desc>lat.=43.134003, lon.=19.308079, Alt.=639.867676m. Speed=9.900000m/h.</desc>
<speed>2.750000</speed>
</trkpt>
<trkpt lat="43.134682" lon="19.307446">
<ele>636.4</ele>
<time>2012-05-03T11:18:09Z</time>
<desc>lat.=43.134682, lon.=19.307446, Alt.=638.305176m. Speed=9.360000m/h.</desc>
<speed>2.600000</speed>
</trkpt>
<trkpt lat="43.136250" lon="19.304621">
<ele>641.9</ele>
<time>2012-05-03T11:19:44Z</time>
<desc>lat.=43.136250, lon.=19.304621, Alt.=638.023926m. Speed=7.236000m/h.</desc>
<speed>2.010000</speed>
</trkpt>
<trkpt lat="43.138237" lon="19.302109">
<ele>626.8</ele>
<time>2012-05-03T11:21:39Z</time>
<desc>lat.=43.138237, lon.=19.302109, Alt.=638.258301m. Speed=13.248000m/h.</desc>
<speed>3.680000</speed>
</trkpt>
<trkpt lat="43.138313" lon="19.301796">
<ele>628.9</ele>
<time>2012-05-03T11:22:04Z</time>
<desc>lat.=43.138313, lon.=19.301796, Alt.=635.477051m. Speed=1.836000m/h.</desc>
<speed>0.510000</speed>
</trkpt>
<trkpt lat="43.138382" lon="19.302080">
<ele>631.7</ele>
<time>2012-05-03T11:23:34Z</time>
<desc>lat.=43.138382, lon.=19.302080, Alt.=639.977051m. Speed=0.216000m/h.</desc>
<speed>0.060000</speed>
</trkpt>
<trkpt lat="43.138157" lon="19.302010">
<ele>626.7</ele>
<time>2012-05-03T11:23:59Z</time>
<desc>lat.=43.138157, lon.=19.302010, Alt.=639.367676m. Speed=1.872000m/h.</desc>
<speed>0.520000</speed>
</trkpt>
<trkpt lat="43.137817" lon="19.301325">
<ele>656.1</ele>
<time>2012-05-03T11:24:49Z</time>
<desc>lat.=43.137817, lon.=19.301325, Alt.=639.758301m. Speed=2.520000m/h.</desc>
<speed>0.700000</speed>
</trkpt>
<trkpt lat="43.137936" lon="19.301109">
<ele>658.2</ele>
<time>2012-05-03T11:25:19Z</time>
<desc>lat.=43.137936, lon.=19.301109, Alt.=639.727051m. Speed=2.376000m/h.</desc>
<speed>0.660000</speed>
</trkpt>
<trkpt lat="43.137756" lon="19.300930">
<ele>678.6</ele>
<time>2012-05-03T11:25:49Z</time>
<desc>lat.=43.137756, lon.=19.300930, Alt.=642.008301m. Speed=1.332000m/h.</desc>
<speed>0.370000</speed>
</trkpt>
<trkpt lat="43.138302" lon="19.300924">
<ele>661.1</ele>
<time>2012-05-03T11:26:14Z</time>
<desc>lat.=43.138302, lon.=19.300924, Alt.=642.242676m. Speed=1.764000m/h.</desc>
<speed>0.490000</speed>
</trkpt>
<trkpt lat="43.137897" lon="19.301241">
<ele>653.4</ele>
<time>2012-05-03T11:26:27Z</time>
<desc>lat.=43.137897, lon.=19.301241, Alt.=641.273926m. Speed=1.332000m/h.</desc>
<speed>0.370000</speed>
</trkpt>
<trkpt lat="43.138149" lon="19.300880">
<ele>664.3</ele>
<time>2012-05-03T11:26:47Z</time>
<desc>lat.=43.138149, lon.=19.300880, Alt.=641.320801m. Speed=5.292000m/h.</desc>
<speed>1.470000</speed>
</trkpt>
<trkpt lat="43.139763" lon="19.300703">
<ele>655.2</ele>
<time>2012-05-03T11:30:03Z</time>
<desc>lat.=43.139763, lon.=19.300703, Alt.=764.336426m. Speed=1.296000m/h.</desc>
<speed>0.360000</speed>
</trkpt>
<trkpt lat="43.136883" lon="19.301996">
<ele>697.3</ele>
<time>2012-05-03T11:30:19Z</time>
<desc>lat.=43.136883, lon.=19.301996, Alt.=739.945801m. Speed=0.828000m/h.</desc>
<speed>0.230000</speed>
</trkpt>
<trkpt lat="43.136784" lon="19.301815">
<ele>702.1</ele>
<time>2012-05-03T11:30:39Z</time>
<desc>lat.=43.136784, lon.=19.301815, Alt.=682.664551m. Speed=3.708000m/h.</desc>
<speed>1.030000</speed>
</trkpt>
<trkpt lat="43.137859" lon="19.300987">
<ele>668.7</ele>
<time>2012-05-03T11:31:17Z</time>
<desc>lat.=43.137859, lon.=19.300987, Alt.=648.039551m. Speed=4.392000m/h.</desc>
<speed>1.220000</speed>
</trkpt>
<trkpt lat="43.137848" lon="19.301216">
<ele>658.1</ele>
<time>2012-05-03T11:31:42Z</time>
<desc>lat.=43.137848, lon.=19.301216, Alt.=645.711426m. Speed=1.800000m/h.</desc>
<speed>0.500000</speed>
</trkpt>
<trkpt lat="43.138332" lon="19.302076">
<ele>629.9</ele>
<time>2012-05-03T11:34:07Z</time>
<desc>lat.=43.138332, lon.=19.302076, Alt.=638.305176m. Speed=0.396000m/h.</desc>
<speed>0.110000</speed>
</trkpt>
<trkpt lat="43.138577" lon="19.301842">
<ele>636.2</ele>
<time>2012-05-03T11:35:42Z</time>
<desc>lat.=43.138577, lon.=19.301842, Alt.=639.336426m. Speed=0.576000m/h.</desc>
<speed>0.160000</speed>
</trkpt>
<trkpt lat="43.138321" lon="19.301802">
<ele>629.1</ele>
<time>2012-05-03T11:36:27Z</time>
<desc>lat.=43.138321, lon.=19.301802, Alt.=637.711426m. Speed=1.080000m/h.</desc>
<speed>0.300000</speed>
</trkpt>
<trkpt lat="43.138424" lon="19.302048">
<ele>632.6</ele>
<time>2012-05-03T11:36:57Z</time>
<desc>lat.=43.138424, lon.=19.302048, Alt.=635.820801m. Speed=4.392000m/h.</desc>
<speed>1.220000</speed>
</trkpt>
<trkpt lat="43.139256" lon="19.301321">
<ele>643.3</ele>
<time>2012-05-03T11:37:37Z</time>
<desc>lat.=43.139256, lon.=19.301321, Alt.=634.898926m. Speed=9.072000m/h.</desc>
<speed>2.520000</speed>
</trkpt>
<trkpt lat="43.141163" lon="19.300467">
<ele>642.3</ele>
<time>2012-05-03T11:38:47Z</time>
<desc>lat.=43.141163, lon.=19.300467, Alt.=641.258301m. Speed=14.688000m/h.</desc>
<speed>4.080000</speed>
</trkpt>
<trkpt lat="43.142437" lon="19.298971">
<ele>637.2</ele>
<time>2012-05-03T11:39:42Z</time>
<desc>lat.=43.142437, lon.=19.298971, Alt.=654.523926m. Speed=6.840000m/h.</desc>
<speed>1.900000</speed>
</trkpt>
<trkpt lat="43.143223" lon="19.298811">
<ele>642.2</ele>
<time>2012-05-03T11:40:17Z</time>
<desc>lat.=43.143223, lon.=19.298811, Alt.=651.383301m. Speed=7.128000m/h.</desc>
<speed>1.980000</speed>
</trkpt>
<trkpt lat="43.143726" lon="19.299034">
<ele>649.9</ele>
<time>2012-05-03T11:40:52Z</time>
<desc>lat.=43.143726, lon.=19.299034, Alt.=649.602051m. Speed=5.220000m/h.</desc>
<speed>1.450000</speed>
</trkpt>
<trkpt lat="43.144054" lon="19.298103">
<ele>637.7</ele>
<time>2012-05-03T11:41:17Z</time>
<desc>lat.=43.144054, lon.=19.298103, Alt.=656.461426m. Speed=5.976000m/h.</desc>
<speed>1.660000</speed>
</trkpt>
<trkpt lat="43.145126" lon="19.297483">
<ele>633.7</ele>
<time>2012-05-03T11:42:12Z</time>
<desc>lat.=43.145126, lon.=19.297483, Alt.=644.570801m. Speed=6.660000m/h.</desc>
<speed>1.850000</speed>
</trkpt>
<trkpt lat="43.146320" lon="19.296274">
<ele>625.7</ele>
<time>2012-05-03T11:43:02Z</time>
<desc>lat.=43.146320, lon.=19.296274, Alt.=638.945801m. Speed=11.988000m/h.</desc>
<speed>3.330000</speed>
</trkpt>
<trkpt lat="43.146748" lon="19.296333">
<ele>627.1</ele>
<time>2012-05-03T11:43:17Z</time>
<desc>lat.=43.146748, lon.=19.296333, Alt.=630.070801m. Speed=11.988000m/h.</desc>
<speed>3.330000</speed>
</trkpt>
<trkpt lat="43.147587" lon="19.297071">
<ele>632.3</ele>
<time>2012-05-03T11:43:52Z</time>
<desc>lat.=43.147587, lon.=19.297071, Alt.=632.648926m. Speed=3.780000m/h.</desc>
<speed>1.050000</speed>
</trkpt>
<trkpt lat="43.149612" lon="19.296474">
<ele>665.3</ele>
<time>2012-05-03T11:45:02Z</time>
<desc>lat.=43.149612, lon.=19.296474, Alt.=637.977051m. Speed=10.440000m/h.</desc>
<speed>2.900000</speed>
</trkpt>
<trkpt lat="43.150013" lon="19.296120">
<ele>682.7</ele>
<time>2012-05-03T11:45:17Z</time>
<desc>lat.=43.150013, lon.=19.296120, Alt.=641.039551m. Speed=12.492000m/h.</desc>
<speed>3.470000</speed>
</trkpt>
<trkpt lat="43.150219" lon="19.295525">
<ele>678.2</ele>
<time>2012-05-03T11:45:32Z</time>
<desc>lat.=43.150219, lon.=19.295525, Alt.=642.555176m. Speed=11.376000m/h.</desc>
<speed>3.160000</speed>
</trkpt>
<trkpt lat="43.150684" lon="19.295095">
<ele>664.7</ele>
<time>2012-05-03T11:45:47Z</time>
<desc>lat.=43.150684, lon.=19.295095, Alt.=642.898926m. Speed=14.544000m/h.</desc>
<speed>4.040000</speed>
</trkpt>
<trkpt lat="43.151043" lon="19.294342">
<ele>630.1</ele>
<time>2012-05-03T11:46:07Z</time>
<desc>lat.=43.151043, lon.=19.294342, Alt.=646.180176m. Speed=10.044000m/h.</desc>
<speed>2.790000</speed>
</trkpt>
<trkpt lat="43.152203" lon="19.293484">
<ele>649.8</ele>
<time>2012-05-03T11:46:52Z</time>
<desc>lat.=43.152203, lon.=19.293484, Alt.=654.961426m. Speed=9.540000m/h.</desc>
<speed>2.650000</speed>
</trkpt>
<trkpt lat="43.152725" lon="19.292738">
<ele>658.3</ele>
<time>2012-05-03T11:47:12Z</time>
<desc>lat.=43.152725, lon.=19.292738, Alt.=661.898926m. Speed=14.328000m/h.</desc>
<speed>3.980000</speed>
</trkpt>
<trkpt lat="43.153328" lon="19.292595">
<ele>651.3</ele>
<time>2012-05-03T11:47:27Z</time>
<desc>lat.=43.153328, lon.=19.292595, Alt.=660.367676m. Speed=11.916000m/h.</desc>
<speed>3.310000</speed>
</trkpt>
<trkpt lat="43.154320" lon="19.291700">
<ele>645.5</ele>
<time>2012-05-03T11:48:02Z</time>
<desc>lat.=43.154320, lon.=19.291700, Alt.=660.789551m. Speed=11.916000m/h.</desc>
<speed>3.310000</speed>
</trkpt>
<trkpt lat="43.155693" lon="19.291136">
<ele>644.7</ele>
<time>2012-05-03T11:48:42Z</time>
<desc>lat.=43.155693, lon.=19.291136, Alt.=654.367676m. Speed=16.667999m/h.</desc>
<speed>4.630000</speed>
</trkpt>
<trkpt lat="43.155972" lon="19.290497">
<ele>644.7</ele>
<time>2012-05-03T11:48:57Z</time>
<desc>lat.=43.155972, lon.=19.290497, Alt.=654.211426m. Speed=17.927999m/h.</desc>
<speed>4.980000</speed>
</trkpt>
<trkpt lat="43.156132" lon="19.289354">
<ele>622.0</ele>
<time>2012-05-03T11:49:22Z</time>
<desc>lat.=43.156132, lon.=19.289354, Alt.=653.023926m. Speed=13.932000m/h.</desc>
<speed>3.870000</speed>
</trkpt>
<trkpt lat="43.155384" lon="19.285648">
<ele>621.2</ele>
<time>2012-05-03T11:50:57Z</time>
<desc>lat.=43.155384, lon.=19.285648, Alt.=645.914551m. Speed=9.576000m/h.</desc>
<speed>2.660000</speed>
</trkpt>
<trkpt lat="43.156208" lon="19.284254">
<ele>631.5</ele>
<time>2012-05-03T11:51:37Z</time>
<desc>lat.=43.156208, lon.=19.284254, Alt.=637.195801m. Speed=8.532000m/h.</desc>
<speed>2.370000</speed>
</trkpt>
<trkpt lat="43.156677" lon="19.282730">
<ele>622.4</ele>
<time>2012-05-03T11:52:27Z</time>
<desc>lat.=43.156677, lon.=19.282730, Alt.=638.539551m. Speed=8.928000m/h.</desc>
<speed>2.480000</speed>
</trkpt>
<trkpt lat="43.157188" lon="19.281937">
<ele>628.7</ele>
<time>2012-05-03T11:52:57Z</time>
<desc>lat.=43.157188, lon.=19.281937, Alt.=645.508301m. Speed=10.296000m/h.</desc>
<speed>2.860000</speed>
</trkpt>
<trkpt lat="43.157681" lon="19.280312">
<ele>618.0</ele>
<time>2012-05-03T11:53:52Z</time>
<desc>lat.=43.157681, lon.=19.280312, Alt.=668.383301m. Speed=10.980000m/h.</desc>
<speed>3.050000</speed>
</trkpt>
<trkpt lat="43.157814" lon="19.277185">
<ele>614.8</ele>
<time>2012-05-03T11:55:07Z</time>
<desc>lat.=43.157814, lon.=19.277185, Alt.=639.727051m. Speed=9.216000m/h.</desc>
<speed>2.560000</speed>
</trkpt>
<trkpt lat="43.158421" lon="19.275072">
<ele>623.5</ele>
<time>2012-05-03T11:56:02Z</time>
<desc>lat.=43.158421, lon.=19.275072, Alt.=626.461426m. Speed=12.132000m/h.</desc>
<speed>3.370000</speed>
</trkpt>
<trkpt lat="43.158741" lon="19.274477">
<ele>633.0</ele>
<time>2012-05-03T11:56:17Z</time>
<desc>lat.=43.158741, lon.=19.274477, Alt.=627.336426m. Speed=13.032000m/h.</desc>
<speed>3.620000</speed>
</trkpt>
<trkpt lat="43.159527" lon="19.273964">
<ele>633.5</ele>
<time>2012-05-03T11:56:37Z</time>
<desc>lat.=43.159527, lon.=19.273964, Alt.=636.070801m. Speed=14.724000m/h.</desc>
<speed>4.090000</speed>
</trkpt>
<trkpt lat="43.161030" lon="19.271927">
<ele>628.1</ele>
<time>2012-05-03T11:57:52Z</time>
<desc>lat.=43.161030, lon.=19.271927, Alt.=666.914551m. Speed=12.528000m/h.</desc>
<speed>3.480000</speed>
</trkpt>
<trkpt lat="43.162682" lon="19.270948">
<ele>622.2</ele>
<time>2012-05-03T11:59:02Z</time>
<desc>lat.=43.162682, lon.=19.270948, Alt.=694.898926m. Speed=9.792000m/h.</desc>
<speed>2.720000</speed>
</trkpt>
<trkpt lat="43.163784" lon="19.268398">
<ele>617.3</ele>
<time>2012-05-03T12:00:02Z</time>
<desc>lat.=43.163784, lon.=19.268398, Alt.=719.289551m. Speed=13.176000m/h.</desc>
<speed>3.660000</speed>
</trkpt>
<trkpt lat="43.164036" lon="19.266560">
<ele>618.3</ele>
<time>2012-05-03T12:00:47Z</time>
<desc>lat.=43.164036, lon.=19.266560, Alt.=740.430176m. Speed=12.348000m/h.</desc>
<speed>3.430000</speed>
</trkpt>
<trkpt lat="43.164806" lon="19.264065">
<ele>626.7</ele>
<time>2012-05-03T12:01:57Z</time>
<desc>lat.=43.164806, lon.=19.264065, Alt.=770.352051m. Speed=6.804000m/h.</desc>
<speed>1.890000</speed>
</trkpt>
<trkpt lat="43.165546" lon="19.262920">
<ele>615.6</ele>
<time>2012-05-03T12:02:52Z</time>
<desc>lat.=43.165546, lon.=19.262920, Alt.=810.539551m. Speed=6.300000m/h.</desc>
<speed>1.750000</speed>
</trkpt>
<trkpt lat="43.166302" lon="19.262384">
<ele>620.7</ele>
<time>2012-05-03T12:03:27Z</time>
<desc>lat.=43.166302, lon.=19.262384, Alt.=838.789551m. Speed=7.704000m/h.</desc>
<speed>2.140000</speed>
</trkpt>
<trkpt lat="43.166973" lon="19.262362">
<ele>625.8</ele>
<time>2012-05-03T12:03:52Z</time>
<desc>lat.=43.166973, lon.=19.262362, Alt.=862.961426m. Speed=12.672000m/h.</desc>
<speed>3.520000</speed>
</trkpt>
<trkpt lat="43.169083" lon="19.261366">
<ele>634.3</ele>
<time>2012-05-03T12:05:12Z</time>
<desc>lat.=43.169083, lon.=19.261366, Alt.=929.289551m. Speed=7.848000m/h.</desc>
<speed>2.180000</speed>
</trkpt>
<trkpt lat="43.170315" lon="19.261072">
<ele>622.1</ele>
<time>2012-05-03T12:05:52Z</time>
<desc>lat.=43.170315, lon.=19.261072, Alt.=959.320801m. Speed=9.972000m/h.</desc>
<speed>2.770000</speed>
</trkpt>
<trkpt lat="43.171257" lon="19.259991">
<ele>635.8</ele>
<time>2012-05-03T12:06:42Z</time>
<desc>lat.=43.171257, lon.=19.259991, Alt.=995.883301m. Speed=9.756000m/h.</desc>
<speed>2.710000</speed>
</trkpt>
<trkpt lat="43.172394" lon="19.259378">
<ele>622.9</ele>
<time>2012-05-03T12:07:32Z</time>
<desc>lat.=43.172394, lon.=19.259378, Alt.=951.945801m. Speed=11.304000m/h.</desc>
<speed>3.140000</speed>
</trkpt>
<trkpt lat="43.172058" lon="19.259182">
<ele>644.8</ele>
<time>2012-05-03T12:07:37Z</time>
<desc>lat.=43.172058, lon.=19.259182, Alt.=936.727051m. Speed=12.492000m/h.</desc>
<speed>3.470000</speed>
</trkpt>
<trkpt lat="43.172100" lon="19.258963">
<ele>658.5</ele>
<time>2012-05-03T12:07:42Z</time>
<desc>lat.=43.172100, lon.=19.258963, Alt.=929.648926m. Speed=11.844000m/h.</desc>
<speed>3.290000</speed>
</trkpt>
<trkpt lat="43.172722" lon="19.258244">
<ele>682.6</ele>
<time>2012-05-03T12:08:32Z</time>
<desc>lat.=43.172722, lon.=19.258244, Alt.=922.461426m. Speed=10.512000m/h.</desc>
<speed>2.920000</speed>
</trkpt>
<trkpt lat="43.173744" lon="19.259092">
<ele>626.6</ele>
<time>2012-05-03T12:08:37Z</time>
<desc>lat.=43.173744, lon.=19.259092, Alt.=903.180176m. Speed=12.132000m/h.</desc>
<speed>3.370000</speed>
</trkpt>
<trkpt lat="43.173996" lon="19.258202">
<ele>626.5</ele>
<time>2012-05-03T12:08:47Z</time>
<desc>lat.=43.173996, lon.=19.258202, Alt.=897.461426m. Speed=6.084000m/h.</desc>
<speed>1.690000</speed>
</trkpt>
<trkpt lat="43.174644" lon="19.257147">
<ele>628.9</ele>
<time>2012-05-03T12:09:22Z</time>
<desc>lat.=43.174644, lon.=19.257147, Alt.=915.742676m. Speed=8.604000m/h.</desc>
<speed>2.390000</speed>
</trkpt>
<trkpt lat="43.175179" lon="19.256504">
<ele>647.2</ele>
<time>2012-05-03T12:09:57Z</time>
<desc>lat.=43.175179, lon.=19.256504, Alt.=949.398926m. Speed=5.580000m/h.</desc>
<speed>1.550000</speed>
</trkpt>
<trkpt lat="43.175808" lon="19.256197">
<ele>624.9</ele>
<time>2012-05-03T12:10:27Z</time>
<desc>lat.=43.175808, lon.=19.256197, Alt.=981.555176m. Speed=5.256000m/h.</desc>
<speed>1.460000</speed>
</trkpt>
<trkpt lat="43.175938" lon="19.255640">
<ele>632.3</ele>
<time>2012-05-03T12:10:47Z</time>
<desc>lat.=43.175938, lon.=19.255640, Alt.=997.289551m. Speed=10.080000m/h.</desc>
<speed>2.800000</speed>
</trkpt>
<trkpt lat="43.176804" lon="19.254860">
<ele>606.4</ele>
<time>2012-05-03T12:11:22Z</time>
<desc>lat.=43.176804, lon.=19.254860, Alt.=1030.047852m. Speed=8.712000m/h.</desc>
<speed>2.420000</speed>
</trkpt>
<trkpt lat="43.176994" lon="19.254181">
<ele>598.7</ele>
<time>2012-05-03T12:11:42Z</time>
<desc>lat.=43.176994, lon.=19.254181, Alt.=1046.860352m. Speed=9.684000m/h.</desc>
<speed>2.690000</speed>
</trkpt>
<trkpt lat="43.176449" lon="19.252926">
<ele>602.8</ele>
<time>2012-05-03T12:12:17Z</time>
<desc>lat.=43.176449, lon.=19.252926, Alt.=1072.141602m. Speed=9.252000m/h.</desc>
<speed>2.570000</speed>
</trkpt>
<trkpt lat="43.176987" lon="19.253254">
<ele>600.3</ele>
<time>2012-05-03T12:13:52Z</time>
<desc>lat.=43.176987, lon.=19.253254, Alt.=1082.172852m. Speed=3.960000m/h.</desc>
<speed>1.100000</speed>
</trkpt>
<trkpt lat="43.176830" lon="19.253279">
<ele>598.0</ele>
<time>2012-05-03T12:14:12Z</time>
<desc>lat.=43.176830, lon.=19.253279, Alt.=1080.297852m. Speed=2.808000m/h.</desc>
<speed>0.780000</speed>
</trkpt>
<trkpt lat="43.176727" lon="19.252787">
<ele>599.2</ele>
<time>2012-05-03T12:15:47Z</time>
<desc>lat.=43.176727, lon.=19.252787, Alt.=1069.735352m. Speed=0.648000m/h.</desc>
<speed>0.180000</speed>
</trkpt>
<trkpt lat="43.176758" lon="19.253029">
<ele>598.6</ele>
<time>2012-05-03T12:15:57Z</time>
<desc>lat.=43.176758, lon.=19.253029, Alt.=1069.954102m. Speed=1.836000m/h.</desc>
<speed>0.510000</speed>
</trkpt>
<trkpt lat="43.177113" lon="19.253016">
<ele>604.9</ele>
<time>2012-05-03T12:16:22Z</time>
<desc>lat.=43.177113, lon.=19.253016, Alt.=1068.204102m. Speed=0.216000m/h.</desc>
<speed>0.060000</speed>
</trkpt>
<trkpt lat="43.177006" lon="19.252750">
<ele>605.0</ele>
<time>2012-05-03T12:16:42Z</time>
<desc>lat.=43.177006, lon.=19.252750, Alt.=1062.391602m. Speed=0.468000m/h.</desc>
<speed>0.130000</speed>
</trkpt>
<trkpt lat="43.176811" lon="19.252735">
<ele>600.0</ele>
<time>2012-05-03T12:17:02Z</time>
<desc>lat.=43.176811, lon.=19.252735, Alt.=1039.985352m. Speed=7.992000m/h.</desc>
<speed>2.220000</speed>
</trkpt>
<trkpt lat="43.176727" lon="19.252880">
<ele>598.9</ele>
<time>2012-05-03T12:17:07Z</time>
<desc>lat.=43.176727, lon.=19.252880, Alt.=1032.610352m. Speed=3.024000m/h.</desc>
<speed>0.840000</speed>
</trkpt>
<trkpt lat="43.176590" lon="19.252783">
<ele>598.5</ele>
<time>2012-05-03T12:17:32Z</time>
<desc>lat.=43.176590, lon.=19.252783, Alt.=1017.023926m. Speed=0.072000m/h.</desc>
<speed>0.020000</speed>
</trkpt>
<trkpt lat="43.176563" lon="19.253019">
<ele>598.7</ele>
<time>2012-05-03T12:22:57Z</time>
<desc>lat.=43.176563, lon.=19.253019, Alt.=977.258301m. Speed=3.528000m/h.</desc>
<speed>0.980000</speed>
</trkpt>
</trkseg>
</trk>
</gpx>